Time;durP1;ratioP1;P1;durP2;ratioP2;P2;SDS_P1;SDS_P2;PMS_P1;PMS_P2;Temp;Humidity;BMP_temperature;BMP_pressure;BME280_temperature;BME280_humidity;BME280_pressure;Samples;Min_cycle;Max_cycle;Signal;HPM_P1;HPM_P2
2021/05/19 00:00:26;;;;;;;2.10;1.90;;;10.60;1.00;;;;;;4993625;28;20417;-75
2021/05/19 00:02:52;;;;;;;4.53;2.80;;;;;;;;;;4993598;28;20453;-76
2021/05/19 00:05:18;;;;;;;4.47;2.40;;;;;;;;;;4993489;28;20456;-76
2021/05/19 00:07:44;;;;;;;4.47;2.40;;;;;;;;;;4993540;28;20495;-76
2021/05/19 00:10:10;;;;;;;2.57;2.37;;;;;;;;;;4993277;28;20413;-76
2021/05/19 00:12:37;;;;;;;5.73;2.07;;;;;;;;;;4993651;28;20459;-76
2021/05/19 00:15:04;;;;;;;3.70;2.80;;;10.80;1.00;;;;;;4993633;28;20432;-76
2021/05/19 00:17:30;;;;;;;2.70;2.07;;;;;;;;;;4989375;28;20430;-76
2021/05/19 00:19:56;;;;;;;5.63;2.60;;;;;;;;;;4982275;28;20432;-76
2021/05/19 00:22:22;;;;;;;2.50;2.30;;;;;;;;;;4993659;28;20910;-75
2021/05/19 00:24:47;;;;;;;2.50;2.30;;;;;;;;;;4993214;28;20425;-75
2021/05/19 00:27:14;;;;;;;5.50;2.73;;;;;;;;;;4992511;28;20510;-76
2021/05/19 00:29:41;;;;;;;4.33;2.47;;;;;;;;;;4993302;28;20806;-76
2021/05/19 00:32:07;;;;;;;2.67;2.43;;;;;;;;;;4993383;28;20424;-76
2021/05/19 00:34:33;;;;;;;2.30;1.93;;;;;;;;;;4992222;28;20421;-76
2021/05/19 00:36:59;;;;;;;3.13;2.53;;;;;;;;;;4991797;28;20421;-76
2021/05/19 00:39:25;;;;;;;6.43;2.23;;;;;;;;;;4992442;28;20919;-76
2021/05/19 00:41:51;;;;;;;3.53;2.37;;;;;;;;;;4993170;28;20513;-76
2021/05/19 00:44:17;;;;;;;2.93;2.13;;;;;;;;;;4993490;28;20393;-76
2021/05/19 00:46:47;;;;;;;2.93;2.23;;;10.10;1.00;;;;;;4991907;28;20433;-76
2021/05/19 00:49:13;;;;;;;4.13;2.47;;;;;;;;;;4991258;28;20432;-76
2021/05/19 00:51:39;;;;;;;3.53;2.30;;;;;;;;;;4982317;28;20426;-76
2021/05/19 00:54:05;;;;;;;3.30;2.50;;;;;;;;;;4974232;28;20755;-75
2021/05/19 00:56:31;;;;;;;2.50;2.30;;;;;;;;;;4973812;28;20398;-75
2021/05/19 00:59:00;;;;;;;3.83;2.43;;;9.60;1.00;;;;;;4975383;28;20513;-75
2021/05/19 01:01:27;;;;;;;4.97;2.13;;;;;;;;;;4990277;28;20693;-75
2021/05/19 01:03:53;;;;;;;4.57;3.00;;;;;;;;;;4993098;28;20507;-75
2021/05/19 01:09:36;;;;;;;9.43;3.23;;;;;;;;;;4899350;29;20504;-76
2021/05/19 01:12:14;;;;;;;3.53;2.70;;;9.10;1.00;;;;;;4905185;29;20435;-76
2021/05/19 01:14:41;;;;;;;4.37;2.50;;;9.10;1.00;;;;;;4898949;29;20908;-76
2021/05/19 01:17:08;;;;;;;4.57;2.97;;;9.00;1.00;;;;;;4911190;29;20429;-76
2021/05/19 01:19:38;;;;;;;7.20;2.70;;;8.90;1.00;;;;;;4916975;29;20436;-76
2021/05/19 01:22:11;;;;;;;2.67;2.33;;;8.90;1.00;;;;;;4916947;29;20824;-76
2021/05/19 01:24:39;;;;;;;4.50;2.67;;;8.80;1.00;;;;;;4917853;29;20511;-76
2021/05/19 01:27:06;;;;;;;6.00;3.47;;;8.50;1.00;;;;;;4916104;29;20484;-76
2021/05/19 01:29:33;;;;;;;3.93;2.53;;;;;;;;;;4917444;29;20409;-76
2021/05/19 01:31:59;;;;;;;3.40;2.60;;;;;;;;;;4917348;29;20487;-76
2021/05/19 01:34:25;;;;;;;4.07;2.70;;;;;;;;;;4913091;29;20432;-76
2021/05/19 01:36:51;;;;;;;10.87;3.10;;;;;;;;;;4911096;29;20985;-76
2021/05/19 01:39:17;;;;;;;5.20;3.00;;;;;;;;;;4901557;29;20512;-76
2021/05/19 01:41:43;;;;;;;3.60;3.00;;;;;;;;;;4910157;29;20485;-76
2021/05/19 01:44:17;;;;;;;7.87;2.97;;;8.30;1.00;;;;;;4917239;28;20488;-76
2021/05/19 01:46:44;;;;;;;4.90;2.70;;;8.30;1.00;;;;;;4996008;28;20405;-76
2021/05/19 01:49:12;;;;;;;3.43;2.63;;;8.30;1.00;;;;;;4982347;28;20495;-76
2021/05/19 01:51:39;;;;;;;6.83;2.93;;;8.20;1.00;;;;;;4985216;28;20775;-76
2021/05/19 01:54:06;;;;;;;3.90;2.73;;;8.20;1.00;;;;;;4976721;28;20429;-76
2021/05/19 01:56:39;;;;;;;10.90;3.33;;;8.20;1.00;;;;;;4976506;28;20410;-76
2021/05/19 01:59:06;;;;;;;4.53;2.97;;;8.00;1.00;;;;;;4976856;28;20913;-76
2021/05/19 02:01:33;;;;;;;8.80;2.80;;;7.90;1.00;;;;;;4990360;28;20547;-76
2021/05/19 02:04:10;;;;;;;5.00;3.17;;;7.90;1.00;;;;;;4996045;28;20774;-76
2021/05/19 02:06:46;;;;;;;3.70;2.80;;;7.90;1.00;;;;;;4994290;28;20427;-76
2021/05/19 02:09:13;;;;;;;3.37;2.50;;;7.90;1.00;;;;;;4978819;28;20971;-76
2021/05/19 02:11:39;;;;;;;6.30;3.13;;;;;;;;;;4990350;28;20436;-76
2021/05/19 02:14:05;;;;;;;9.50;2.80;;;;;;;;;;4985468;28;20441;-76
2021/05/19 02:16:31;;;;;;;4.00;2.87;;;;;;;;;;4995245;28;20432;-76
2021/05/19 02:18:57;;;;;;;8.33;2.80;;;;;;;;;;4994583;28;20444;-76
2021/05/19 02:21:24;;;;;;;13.63;3.50;;;;;;;;;;4985408;28;20781;-76
2021/05/19 02:23:50;;;;;;;11.30;3.20;;;;;;;;;;4995801;28;20465;-76
2021/05/19 02:26:16;;;;;;;5.43;2.80;;;;;;;;;;4995152;28;20389;-76
2021/05/19 02:28:42;;;;;;;4.53;2.80;;;;;;;;;;4997203;28;20426;-76
2021/05/19 02:31:08;;;;;;;5.37;3.10;;;;;;;;;;4976147;28;20876;-76
2021/05/19 02:33:34;;;;;;;5.30;2.70;;;;;;;;;;4976228;28;20433;-76
2021/05/19 02:36:00;;;;;;;8.20;3.80;;;;;;;;;;4976814;28;20436;-76
2021/05/19 02:38:26;;;;;;;3.43;2.30;;;;;;;;;;4980847;28;20431;-74
2021/05/19 02:40:52;;;;;;;3.87;2.67;;;;;;;;;;4984297;28;20431;-76
2021/05/19 02:43:18;;;;;;;4.30;3.13;;;;;;;;;;4994881;28;20440;-75
2021/05/19 02:45:44;;;;;;;3.03;2.73;;;;;;;;;;4980972;28;20418;-75
2021/05/19 02:48:10;;;;;;;5.47;3.47;;;;;;;;;;4981757;28;20919;-75
2021/05/19 02:50:36;;;;;;;5.27;2.87;;;;;;;;;;4975732;28;20430;-75
2021/05/19 02:53:02;;;;;;;5.57;3.20;;;;;;;;;;4990785;28;20457;-75
2021/05/19 02:55:31;;;;;;;7.17;3.60;;;;;;;;;;4974883;28;20430;-76
2021/05/19 02:57:57;;;;;;;3.70;3.03;;;;;;;;;;4986558;28;20426;-76
2021/05/19 03:00:23;;;;;;;3.50;3.10;;;;;;;;;;4992062;28;20461;-76
2021/05/19 03:02:49;;;;;;;5.80;3.37;;;;;;;;;;4993136;28;20503;-76
2021/05/19 03:05:15;;;;;;;11.80;3.03;;;;;;;;;;4994762;28;20509;-76
2021/05/19 03:07:41;;;;;;;8.80;4.40;;;;;;;;;;4984500;28;20786;-76
2021/05/19 03:10:08;;;;;;;5.80;3.70;;;7.90;1.00;;;;;;4987446;28;20429;-75
2021/05/19 03:12:34;;;;;;;4.70;3.57;;;;;;;;;;4985888;28;20504;-75
2021/05/19 03:15:00;;;;;;;4.80;3.27;;;;;;;;;;4993268;28;20524;-75
2021/05/19 03:17:26;;;;;;;4.13;3.20;;;;;;;;;;4994517;28;20420;-75
2021/05/19 03:19:53;;;;;;;3.83;2.90;;;;;;;;;;4982218;28;20574;-75
2021/05/19 03:22:19;;;;;;;4.77;3.20;;;;;;;;;;4994051;28;20550;-75
2021/05/19 03:24:45;;;;;;;4.40;3.30;;;;;;;;;;4993644;28;20873;-75
2021/05/19 03:27:11;;;;;;;4.77;3.40;;;;;;;;;;4992695;28;20920;-75
2021/05/19 03:29:37;;;;;;;5.00;3.20;;;;;;;;;;4989080;28;20413;-75
2021/05/19 03:32:03;;;;;;;8.00;4.20;;;8.10;1.00;;;;;;4994472;28;20397;-75
2021/05/19 03:34:29;;;;;;;14.30;4.50;;;;;;;;;;4993880;28;20917;-75
2021/05/19 03:36:56;;;;;;;4.83;3.60;;;;;;;;;;4993659;28;20449;-75
2021/05/19 03:39:22;;;;;;;3.97;2.90;;;;;;;;;;4981414;28;20422;-76
2021/05/19 03:41:48;;;;;;;7.97;4.93;;;;;;;;;;4989286;28;20959;-78
2021/05/19 03:44:14;;;;;;;11.73;4.50;;;;;;;;;;4994260;28;20480;-75
2021/05/19 03:46:40;;;;;;;6.53;4.13;;;;;;;;;;4991053;28;20421;-86
2021/05/19 03:49:06;;;;;;;4.50;3.83;;;;;;;;;;4987855;28;20425;-86
2021/05/19 03:51:33;;;;;;;6.13;3.83;;;8.20;1.00;;;;;;4994076;28;20916;-87
2021/05/19 03:54:09;;;;;;;6.03;4.37;;;;;;;;;;4981024;28;20500;-85
2021/05/19 03:56:35;;;;;;;5.97;4.37;;;;;;;;;;4986380;28;20431;-87
2021/05/19 03:59:01;;;;;;;10.47;4.80;;;;;;;;;;4985725;28;20495;-87
2021/05/19 04:01:27;;;;;;;7.83;4.40;;;;;;;;;;4977120;28;20433;-86
2021/05/19 04:03:53;;;;;;;4.90;3.80;;;;;;;;;;4974811;28;20421;-86
2021/05/19 04:06:26;;;;;;;5.50;4.23;;;;;;;;;;4989878;28;20416;-86
2021/05/19 04:08:53;;;;;;;5.03;4.00;;;;;;;;;;4983410;28;20689;-87
2021/05/19 04:11:19;;;;;;;16.00;5.00;;;;;;;;;;4989445;28;20950;-87
2021/05/19 04:13:45;;;;;;;6.53;5.13;;;;;;;;;;4993260;28;20453;-85
2021/05/19 04:16:12;;;;;;;6.80;4.57;;;;;;;;;;4994045;28;20401;-86
2021/05/19 04:18:38;;;;;;;6.37;4.00;;;;;;;;;;4993496;28;20425;-87
2021/05/19 04:21:05;;;;;;;8.00;4.30;;;8.70;1.00;;;;;;4993835;28;20876;-86
2021/05/19 04:23:31;;;;;;;4.77;3.70;;;;;;;;;;4992557;28;20484;-86
2021/05/19 04:25:57;;;;;;;7.33;4.80;;;;;;;;;;4993917;28;20408;-79
2021/05/19 04:28:23;;;;;;;6.63;4.67;;;;;;;;;;4992591;28;20393;-76
2021/05/19 04:30:49;;;;;;;8.40;4.60;;;8.80;1.00;;;;;;4988897;28;20631;-77
2021/05/19 04:33:17;;;;;;;6.43;4.10;;;;;;;;;;4993374;28;20519;-76
2021/05/19 04:35:43;;;;;;;7.77;4.93;;;;;;;;;;4992105;28;20451;-76
2021/05/19 04:38:09;;;;;;;5.63;3.93;;;;;;;;;;4993368;28;20400;-75
2021/05/19 04:40:35;;;;;;;6.43;4.20;;;;;;;;;;4984063;28;20420;-75
2021/05/19 04:43:05;;;;;;;14.80;4.73;;;;;;;;;;4995660;28;20440;-76
2021/05/19 04:45:31;;;;;;;6.17;4.60;;;;;;;;;;4997433;28;20404;-76
2021/05/19 04:47:57;;;;;;;4.90;3.93;;;;;;;;;;4991785;28;20418;-76
2021/05/19 04:50:23;;;;;;;15.53;4.43;;;;;;;;;;4982857;28;20904;-75
2021/05/19 04:52:49;;;;;;;6.20;4.27;;;;;;;;;;4977627;28;20453;-75
2021/05/19 04:55:15;;;;;;;4.47;3.80;;;;;;;;;;4978173;28;20404;-76
2021/05/19 04:57:41;;;;;;;4.37;3.87;;;;;;;;;;4987850;28;20501;-75
2021/05/19 05:00:07;;;;;;;4.70;3.73;;;9.80;1.00;;;;;;4996073;28;20444;-76
2021/05/19 05:02:33;;;;;;;6.07;4.10;;;;;;;;;;4991137;28;20429;-76
2021/05/19 05:05:00;;;;;;;26.17;6.00;;;;;;;;;;4988633;28;20535;-76
2021/05/19 05:07:26;;;;;;;5.77;3.67;;;;;;;;;;4992180;28;20467;-75
2021/05/19 05:09:55;;;;;;;5.53;3.50;;;;;;;;;;4997130;28;20397;-75
2021/05/19 05:12:21;;;;;;;5.20;3.50;;;;;;;;;;4995797;28;20495;-76
2021/05/19 05:14:47;;;;;;;3.73;3.20;;;;;;;;;;4987561;28;20782;-76
2021/05/19 05:17:13;;;;;;;4.93;3.03;;;;;;;;;;4996461;28;20413;-76
2021/05/19 05:19:39;;;;;;;5.67;3.27;;;;;;;;;;4988487;28;20521;-75
2021/05/19 05:22:05;;;;;;;10.27;3.63;;;;;;;;;;4986536;28;20505;-75
2021/05/19 05:24:32;;;;;;;66.33;9.93;;;;;;;;;;4986946;28;20446;-75
2021/05/19 05:26:58;;;;;;;4.80;3.20;;;;;;;;;;4974772;28;20448;-75
2021/05/19 05:29:24;;;;;;;3.73;2.40;;;;;;;;;;4989637;28;20449;-74
2021/05/19 05:31:50;;;;;;;11.17;2.73;;;10.30;1.00;;;;;;4995196;28;20416;-77
2021/05/19 05:34:16;;;;;;;4.13;3.00;;;;;;;;;;4994810;28;20491;-75
2021/05/19 05:36:42;;;;;;;5.37;2.80;;;;;;;;;;4990285;28;20852;-75
2021/05/19 05:39:09;;;;;;;4.87;3.30;;;;;;;;;;4992683;28;20424;-75
2021/05/19 05:41:35;;;;;;;3.60;2.77;;;;;;;;;;4992923;28;20456;-74
2021/05/19 05:44:01;;;;;;;5.50;2.80;;;;;;;;;;4989053;28;20421;-74
2021/05/19 05:46:27;;;;;;;4.50;3.00;;;;;;;;;;4984164;28;20437;-74
2021/05/19 05:48:53;;;;;;;3.97;2.90;;;;;;;;;;4989974;28;20456;-74
2021/05/19 05:51:19;;;;;;;4.87;2.70;;;;;;;;;;4986970;28;20780;-75
2021/05/19 05:53:45;;;;;;;4.20;2.27;;;;;;;;;;4976378;28;20527;-75
2021/05/19 05:56:11;;;;;;;4.40;2.80;;;;;;;;;;4991737;28;20836;-75
2021/05/19 05:58:37;;;;;;;2.80;1.83;;;;;;;;;;4992655;28;20413;-75
2021/05/19 06:01:03;;;;;;;4.90;2.03;;;;;;;;;;4989879;28;20421;-75
2021/05/19 06:03:29;;;;;;;3.80;2.43;;;;;;;;;;4986928;28;20455;-75
2021/05/19 06:05:55;;;;;;;4.03;2.40;;;;;;;;;;4990366;28;20433;-74
2021/05/19 06:08:21;;;;;;;1.80;1.50;;;;;;;;;;4991940;28;20825;-75
2021/05/19 06:10:47;;;;;;;2.47;2.07;;;;;;;;;;4996003;28;20401;-75
2021/05/19 06:13:13;;;;;;;1.90;1.80;;;;;;;;;;4986269;28;20460;-75
2021/05/19 06:15:39;;;;;;;4.03;1.87;;;;;;;;;;4995954;28;20428;-76
2021/05/19 06:18:05;;;;;;;3.90;2.37;;;;;;;;;;4988919;28;20919;-76
2021/05/19 06:20:31;;;;;;;15.07;3.07;;;;;;;;;;4979516;28;20422;-76
2021/05/19 06:22:57;;;;;;;2.93;2.20;;;;;;;;;;4979490;28;20484;-76
2021/05/19 06:25:23;;;;;;;2.07;1.87;;;;;;;;;;4987292;28;20801;-76
2021/05/19 06:27:49;;;;;;;2.13;1.90;;;;;;;;;;4986461;28;20437;-74
2021/05/19 06:30:15;;;;;;;6.37;2.33;;;12.50;1.00;;;;;;4989859;28;20479;-75
2021/05/19 06:32:41;;;;;;;1.90;1.80;;;;;;;;;;4986078;28;20427;-74
2021/05/19 06:35:07;;;;;;;8.63;3.00;;;;;;;;;;4989486;28;20433;-74
2021/05/19 06:37:33;;;;;;;3.47;2.30;;;;;;;;;;4989301;28;20897;-74
2021/05/19 06:39:59;;;;;;;6.23;2.57;;;;;;;;;;4975909;28;20481;-74
2021/05/19 06:42:25;;;;;;;4.80;2.50;;;;;;;;;;4988135;28;20433;-74
2021/05/19 06:44:52;;;;;;;9.63;2.90;;;;;;;;;;4983358;28;20512;-75
2021/05/19 06:47:18;;;;;;;1.93;1.77;;;;;;;;;;4986794;28;20436;-74
2021/05/19 06:49:44;;;;;;;2.80;2.20;;;;;;;;;;4975269;28;20756;-74
2021/05/19 06:52:10;;;;;;;2.40;2.00;;;;;;;;;;4975342;28;20452;-74
2021/05/19 06:54:36;;;;;;;10.13;3.47;;;;;;;;;;4979426;28;20423;-74
2021/05/19 06:57:02;;;;;;;2.67;2.27;;;;;;;;;;4990832;28;20420;-75
2021/05/19 06:59:28;;;;;;;7.30;2.87;;;;;;;;;;4987063;28;20549;-76
2021/05/19 07:01:54;;;;;;;2.00;1.70;;;;;;;;;;4988480;28;20508;-75
2021/05/19 07:04:20;;;;;;;4.50;2.67;;;;;;;;;;4983649;28;20931;-75
2021/05/19 07:06:47;;;;;;;3.57;2.30;;;;;;;;;;4981996;28;20441;-75
2021/05/19 07:09:13;;;;;;;7.43;2.03;;;;;;;;;;4990362;28;20800;-75
2021/05/19 07:11:39;;;;;;;3.40;2.53;;;;;;;;;;4994962;28;20408;-75
2021/05/19 07:14:07;;;;;;;17.47;3.90;;;;;;;;;;4992917;28;20481;-75
2021/05/19 07:16:36;;;;;;;2.23;2.03;;;14.30;1.00;;;;;;4988414;28;20861;-75
2021/05/19 07:19:02;;;;;;;1.90;1.80;;;;;;;;;;4975244;28;20908;-75
2021/05/19 07:21:28;;;;;;;4.50;2.10;;;;;;;;;;4976826;28;20395;-75
2021/05/19 07:23:54;;;;;;;4.03;2.30;;;;;;;;;;4980868;28;20438;-75
2021/05/19 07:26:23;;;;;;;3.77;2.37;;;;;;;;;;4976334;28;20446;-74
2021/05/19 07:28:50;;;;;;;2.43;2.03;;;14.40;1.00;;;;;;4994339;28;20455;-74
2021/05/19 07:31:16;;;;;;;2.40;2.00;;;;;;;;;;4988878;28;20438;-74
2021/05/19 07:33:42;;;;;;;2.80;2.20;;;;;;;;;;4990077;28;20555;-74
2021/05/19 07:36:08;;;;;;;3.90;2.10;;;;;;;;;;4986157;28;20496;-74
2021/05/19 07:38:34;;;;;;;3.33;1.90;;;;;;;;;;4973968;28;20445;-74
2021/05/19 07:41:00;;;;;;;6.43;2.57;;;;;;;;;;4975714;28;20428;-74
2021/05/19 07:43:26;;;;;;;2.70;2.20;;;;;;;;;;4986707;28;20419;-75
2021/05/19 07:45:52;;;;;;;3.27;1.93;;;;;;;;;;4994015;28;20413;-75
2021/05/19 07:48:18;;;;;;;2.80;2.37;;;;;;;;;;4993905;28;20405;-75
2021/05/19 07:50:44;;;;;;;5.53;2.10;;;;;;;;;;4991683;28;20428;-75
2021/05/19 07:53:10;;;;;;;3.30;2.50;;;;;;;;;;4991005;28;20469;-75
2021/05/19 07:55:47;;;;;;;2.63;2.40;;;;;;;;;;4991141;28;20426;-75
2021/05/19 07:58:22;;;;;;;4.97;2.40;;;;;;;;;;4994164;28;20404;-75
2021/05/19 08:03:14;;;;;;;1.97;1.70;;;;;;;;;;4994009;28;20405;-75
2021/05/19 08:05:41;;;;;;;7.90;3.20;;;;;;;;;;4984181;28;20438;-75
2021/05/19 08:08:07;;;;;;;3.70;2.73;;;;;;;;;;4977181;28;20781;-76
2021/05/19 08:10:33;;;;;;;2.67;2.40;;;;;;;;;;4981518;28;20483;-76
2021/05/19 08:12:59;;;;;;;3.50;2.47;;;;;;;;;;4993758;28;20992;-74
2021/05/19 08:15:25;;;;;;;5.17;2.70;;;;;;;;;;4983091;28;20434;-74
2021/05/19 08:17:51;;;;;;;2.77;2.40;;;;;;;;;;4993101;28;20413;-74
2021/05/19 08:20:20;;;;;;;2.90;1.90;;;;;;;;;;4993559;28;20413;-74
2021/05/19 08:22:49;;;;;;;5.43;3.00;;;15.20;1.00;;;;;;4993053;28;20431;-75
2021/05/19 08:25:15;;;;;;;8.20;3.03;;;;;;;;;;4987814;28;20416;-75
2021/05/19 08:27:41;;;;;;;3.80;1.93;;;;;;;;;;4993649;28;20792;-76
2021/05/19 08:30:10;;;;;;;9.20;4.00;;;16.30;1.00;;;;;;4987808;28;20787;-76
2021/05/19 08:32:37;;;;;;;6.80;3.10;;;;;;;;;;4985258;28;20821;-76
2021/05/19 08:35:03;;;;;;;20.20;3.27;;;16.60;1.00;;;;;;4980469;28;20481;-75
2021/05/19 08:37:29;;;;;;;2.50;2.03;;;;;;;;;;4987352;28;20417;-75
2021/05/19 08:39:55;;;;;;;2.30;2.10;;;;;;;;;;4975711;28;20391;-74
2021/05/19 08:42:21;;;;;;;3.30;2.37;;;;;;;;;;4984860;28;20891;-76
2021/05/19 08:44:47;;;;;;;94.07;10.70;;;;;;;;;;4988468;28;20427;-74
2021/05/19 08:47:13;;;;;;;9.03;2.43;;;;;;;;;;4991800;28;20784;-74
2021/05/19 08:49:45;;;;;;;2.00;1.90;;;17.00;1.00;;;;;;4993125;28;20388;-74
2021/05/19 08:52:11;;;;;;;2.47;2.27;;;;;;;;;;4981848;28;20884;-74
2021/05/19 08:54:37;;;;;;;3.23;2.10;;;;;;;;;;4979366;28;20874;-74
2021/05/19 08:57:03;;;;;;;4.90;2.43;;;;;;;;;;4992865;28;20391;-75
2021/05/19 08:59:29;;;;;;;1.70;1.60;;;;;;;;;;4990581;28;20421;-76
2021/05/19 09:01:55;;;;;;;6.00;2.63;;;;;;;;;;4981452;28;20427;-76
2021/05/19 09:04:24;;;;;;;6.03;2.20;;;17.00;1.00;;;;;;4985029;28;20410;-76
2021/05/19 09:07:00;;;;;;;3.10;2.30;;;17.10;1.00;;;;;;4991889;28;20433;-75
2021/05/19 09:09:30;;;;;;;4.20;2.40;;;16.90;1.00;;;;;;4989097;28;20392;-76
2021/05/19 09:12:03;;;;;;;3.53;2.30;;;16.90;1.00;;;;;;4992485;28;20453;-75
2021/05/19 09:14:42;;;;;;;5.07;2.63;;;16.70;1.00;;;;;;4991264;28;20456;-74
2021/05/19 09:17:20;;;;;;;5.00;2.90;;;16.80;1.00;;;;;;4981887;28;20760;-74
2021/05/19 09:19:47;;;;;;;4.00;2.20;;;16.90;1.00;;;;;;4973564;28;20410;-74
2021/05/19 09:22:34;;;;;;;3.73;2.40;;;17.10;1.00;;;;;;4988937;28;20393;-74
2021/05/19 09:25:04;;;;;;;5.20;2.40;;;17.30;1.00;;;;;;4980100;28;20412;-74
2021/05/19 09:27:40;;;;;;;3.63;2.10;;;17.40;1.00;;;;;;4993943;28;20427;-76
2021/05/19 09:30:07;;;;;;;8.10;2.13;;;17.40;1.00;;;;;;4994566;28;20425;-76
2021/05/19 09:32:39;;;;;;;9.10;2.03;;;17.30;1.00;;;;;;4996577;28;20839;-75
2021/05/19 09:35:06;;;;;;;2.73;2.00;;;17.40;1.00;;;;;;4993311;28;20445;-76
2021/05/19 09:37:33;;;;;;;2.00;1.80;;;;;;;;;;4981846;28;20972;-75
2021/05/19 09:40:04;;;;;;;2.80;1.70;;;17.20;1.00;;;;;;4983968;28;20441;-76
2021/05/19 09:42:35;;;;;;;2.60;2.00;;;17.20;1.00;;;;;;4996423;28;20422;-75
2021/05/19 09:45:40;;;;;;;3.83;1.80;;;17.20;1.00;;;;;;4992470;28;20396;-76
2021/05/19 09:48:06;;;;;;;3.20;2.07;;;;;;;;;;4992011;28;20396;-76
2021/05/19 09:50:41;;;;;;;2.97;2.07;;;17.40;1.00;;;;;;4982064;28;20396;-78
2021/05/19 09:53:10;;;;;;;2.47;1.70;;;17.50;1.00;;;;;;4991672;28;20918;-78
2021/05/19 09:55:38;;;;;;;2.63;2.03;;;17.80;1.00;;;;;;4996027;28;20397;-78
2021/05/19 09:58:05;;;;;;;2.80;1.77;;;;;;;;;;4996269;28;20412;-75
2021/05/19 10:00:32;;;;;;;4.27;1.70;;;17.90;1.00;;;;;;4991041;28;20422;-75
2021/05/19 10:03:00;;;;;;;6.70;2.23;;;;;;;;;;4994538;28;20894;-76
2021/05/19 10:07:56;;;;;;;3.30;2.00;;;;;;;;;;4995838;28;20414;-76
2021/05/19 10:10:26;;;;;;;2.30;1.50;;;18.10;1.00;;;;;;4995786;28;20373;-76
2021/05/19 10:12:53;;;;;;;4.90;2.17;;;;;;;;;;4995906;28;20497;-75
2021/05/19 10:15:24;;;;;;;5.03;2.00;;;18.00;1.00;;;;;;4996156;28;20894;-76
2021/05/19 10:18:06;;;;;;;6.77;1.30;;;17.70;1.00;;;;;;4995507;28;20890;-75
2021/05/19 10:20:42;;;;;;;5.53;1.77;;;17.80;1.00;;;;;;4996165;28;20427;-75
2021/05/19 10:23:09;;;;;;;4.43;1.90;;;17.70;1.00;;;;;;4995371;28;20451;-75
2021/05/19 10:25:42;;;;;;;2.70;1.50;;;17.90;1.00;;;;;;4995698;28;20414;-75
2021/05/19 10:28:18;;;;;;;1.67;1.10;;;18.10;1.00;;;;;;4995396;28;20412;-73
2021/05/19 10:30:50;;;;;;;1.53;0.90;;;18.00;1.00;;;;;;4994111;28;20891;-80
2021/05/19 10:33:38;;;;;;;2.70;1.07;;;18.50;1.00;;;;;;4993591;28;20437;-75
2021/05/19 10:36:25;;;;;;;5.73;1.53;;;18.70;1.00;;;;;;4987371;28;20446;-75
2021/05/19 10:39:09;;;;;;;6.40;1.17;;;18.50;1.00;;;;;;4993577;28;20389;-76
2021/05/19 10:41:39;;;;;;;4.90;1.10;;;18.30;1.00;;;;;;4993220;28;20749;-75
2021/05/19 10:44:09;;;;;;;5.13;1.37;;;18.20;1.00;;;;;;4986087;28;20395;-75
2021/05/19 10:49:59;;;;;;;3.80;1.33;;;18.10;1.00;;;;;;4975507;28;20378;-75
2021/05/19 10:57:48;;;;;;;0.93;0.80;;;;;;;;;;4975398;28;20366;-77
2021/05/19 11:00:17;;;;;;;3.23;1.00;;;18.10;1.00;;;;;;4974330;28;20416;-75
2021/05/19 11:03:00;;;;;;;5.17;1.30;;;18.10;1.00;;;;;;4979883;28;20467;-86
2021/05/19 11:05:55;;;;;;;4.80;1.00;;;18.10;1.00;;;;;;4993418;28;20417;-79
2021/05/19 11:08:27;;;;;;;2.93;1.23;;;18.40;1.00;;;;;;4987810;28;20432;-79
2021/05/19 11:11:27;;;;;;;0.53;0.53;;;18.40;1.00;;;;;;4993698;28;20425;-79
2021/05/19 11:14:18;;;;;;;1.83;0.70;;;18.30;1.00;;;;;;4971109;28;20951;-75
2021/05/19 11:19:37;;;;;;;4.20;1.10;;;18.60;1.00;;;;;;4995288;28;20441;-75
2021/05/19 11:22:08;;;;;;;1.47;0.67;;;18.60;1.00;;;;;;4995048;28;20392;-75
2021/05/19 11:25:11;;;;;;;80.03;7.20;;;18.50;1.00;;;;;;4990739;28;20516;-74
2021/05/19 11:27:37;;;;;;;12.07;1.00;;;;;;;;;;4993071;28;20502;-75
2021/05/19 11:30:05;;;;;;;4.73;0.80;;;18.60;1.00;;;;;;4994261;28;20422;-75
2021/05/19 11:32:33;;;;;;;2.00;0.83;;;;;;;;;;4992670;28;20472;-75
2021/05/19 11:35:20;;;;;;;2.40;0.90;;;18.90;1.00;;;;;;4993940;28;20400;-75
2021/05/19 11:37:53;;;;;;;1.20;0.70;;;19.00;1.00;;;;;;4990187;28;20493;-75
2021/05/19 11:40:19;;;;;;;6.80;1.10;;;;;;;;;;4993711;28;20415;-74
2021/05/19 11:42:55;;;;;;;1.03;0.70;;;18.80;1.00;;;;;;4993583;28;20415;-75
2021/05/19 11:45:26;;;;;;;3.23;1.13;;;18.70;1.00;;;;;;4988944;28;20485;-75
2021/05/19 11:47:52;;;;;;;3.07;0.60;;;;;;;;;;4992565;28;20421;-75
2021/05/19 11:50:25;;;;;;;1.10;0.70;;;18.50;1.00;;;;;;4993840;28;20370;-75
2021/05/19 11:53:10;;;;;;;6.67;1.07;;;18.60;1.00;;;;;;4993775;28;20426;-75
2021/05/19 11:55:36;;;;;;;8.70;1.27;;;;;;;;;;4993749;28;20406;-74
2021/05/19 11:58:11;;;;;;;5.07;0.90;;;18.70;1.00;;;;;;4993816;28;20373;-75
2021/05/19 12:00:49;;;;;;;8.73;2.13;;;18.90;1.00;;;;;;4992785;28;20435;-75
2021/05/19 12:03:18;;;;;;;3.97;0.70;;;19.40;1.00;;;;;;4990361;28;20487;-75
2021/05/19 12:05:44;;;;;;;1.17;0.67;;;;;;;;;;4992392;28;20414;-75
2021/05/19 12:08:34;;;;;;;2.07;0.80;;;19.60;1.00;;;;;;4983375;28;20390;-75
2021/05/19 12:11:10;;;;;;;1.00;0.60;;;20.00;1.00;;;;;;4978300;28;20772;-75
2021/05/19 12:13:38;;;;;;;0.70;0.57;;;19.80;1.00;;;;;;4994240;28;20453;-75
2021/05/19 12:16:16;;;;;;;2.80;1.00;;;19.90;1.00;;;;;;4995005;28;20439;-75
2021/05/19 12:19:08;;;;;;;1.80;0.93;;;20.10;1.00;;;;;;4990505;28;20431;-75
2021/05/19 12:21:39;;;;;;;2.00;0.80;;;20.00;1.00;;;;;;4994373;28;20755;-74
2021/05/19 12:24:06;;;;;;;2.97;0.80;;;20.20;1.00;;;;;;4992718;28;20469;-75
2021/05/19 12:26:34;;;;;;;4.93;0.90;;;20.20;1.00;;;;;;4989356;28;20868;-75
2021/05/19 12:29:00;;;;;;;1.87;0.60;;;;;;;;;;4975941;28;20429;-74
2021/05/19 12:31:30;;;;;;;11.00;0.80;;;20.30;1.00;;;;;;4984710;28;20433;-75
2021/05/19 12:33:56;;;;;;;5.23;0.80;;;20.20;1.00;;;;;;4994058;28;20946;-74
2021/05/19 12:36:27;;;;;;;1.93;0.70;;;20.40;1.00;;;;;;4995284;28;20467;-75
2021/05/19 12:38:57;;;;;;;2.83;0.67;;;20.50;1.00;;;;;;4994199;28;20428;-75
2021/05/19 12:41:44;;;;;;;6.67;0.80;;;20.60;1.00;;;;;;4994183;28;20405;-75
2021/05/19 12:44:15;;;;;;;0.87;0.53;;;20.80;1.00;;;;;;4994520;28;20518;-74
2021/05/19 12:46:41;;;;;;;2.33;0.70;;;;;;;;;;4994074;28;20751;-74
2021/05/19 12:49:11;;;;;;;1.77;0.60;;;21.20;1.00;;;;;;4993700;28;20420;-75
2021/05/19 12:52:04;;;;;;;1.90;0.70;;;21.30;1.00;;;;;;4994028;28;20421;-75
2021/05/19 12:54:34;;;;;;;1.27;0.60;;;21.40;1.00;;;;;;4994193;28;20410;-74
2021/05/19 12:57:07;;;;;;;0.80;0.60;;;21.00;1.00;;;;;;4994100;28;20434;-74
2021/05/19 12:59:59;;;;;;;1.30;0.70;;;21.20;1.00;;;;;;4988294;28;20445;-75
2021/05/19 13:02:46;;;;;;;1.10;0.50;;;20.80;1.00;;;;;;4991797;28;20456;-75
2021/05/19 13:05:21;;;;;;;3.40;0.80;;;21.10;1.00;;;;;;4987456;28;20488;-75
2021/05/19 13:07:49;;;;;;;2.10;0.60;;;21.20;1.00;;;;;;4997195;28;20775;-75
2021/05/19 13:10:41;;;;;;;2.40;0.83;;;21.60;1.00;;;;;;4993071;28;20467;-77
2021/05/19 13:13:37;;;;;;;7.70;1.10;;;22.00;1.00;;;;;;4997634;28;20453;-78
2021/05/19 13:16:31;;;;;;;1.03;0.60;;;22.00;1.00;;;;;;4998472;28;20423;-79
2021/05/19 13:19:07;;;;;;;2.57;0.80;;;21.90;1.00;;;;;;4997894;28;20426;-79
2021/05/19 13:28:23;;;;;;;1.50;0.63;;;22.30;1.00;;;;;;4996759;28;20409;-72
2021/05/19 13:30:49;;;;;;;3.00;0.80;;;;;;;;;;4997798;28;20724;-75
2021/05/19 13:33:32;;;;;;;1.70;0.63;;;;;;;;;;4990269;28;20561;-74
2021/05/19 13:38:41;;;;;;;0.80;0.50;;;22.50;1.00;;;;;;4997648;28;20391;-75
2021/05/19 13:41:07;;;;;;;4.10;0.93;;;;;;;;;;4990111;28;20418;-75
2021/05/19 13:43:41;;;;;;;6.13;1.03;;;21.80;1.00;;;;;;4995320;28;20203;-75
2021/05/19 13:46:06;;;;;;;1.30;0.50;;;21.70;1.00;;;;;;4992549;28;21008;-74
2021/05/19 13:48:33;;;;;;;12.23;1.00;;;;;;;;;;4990777;28;20429;-74
2021/05/19 13:51:03;;;;;;;2.10;0.77;;;21.50;1.00;;;;;;4996519;28;20174;-76
2021/05/19 13:53:30;;;;;;;6.70;0.97;;;21.60;1.00;;;;;;4988979;28;20468;-77
2021/05/19 13:56:03;;;;;;;5.53;0.83;;;21.30;1.00;;;;;;4984628;28;20412;-74
2021/05/19 13:58:32;;;;;;;5.50;1.10;;;18.10;1.00;;;;;;4995524;28;20911;-74
2021/05/19 14:01:03;;;;;;;17.93;1.73;;;21.00;1.00;;;;;;4995426;28;20481;-74
2021/05/19 14:03:29;;;;;;;2.10;0.87;;;21.20;1.00;;;;;;4989715;28;20450;-76
2021/05/19 14:05:55;;;;;;;19.03;1.40;;;;;;;;;;4975770;28;20432;-74
2021/05/19 14:08:21;;;;;;;14.40;1.80;;;20.90;1.00;;;;;;4978665;28;20400;-74
2021/05/19 14:10:58;;;;;;;2.53;1.00;;;;;;;;;;4996242;28;21047;-74
2021/05/19 14:13:28;;;;;;;2.30;0.80;;;19.80;1.00;;;;;;4995866;28;20736;-74
2021/05/19 14:28:51;;;;;;;9.90;1.43;;;18.50;1.00;;;;;;4992035;28;20743;-73
2021/05/19 14:31:17;;;;;;;3.10;0.80;;;;;;;;;;4995902;28;20468;-75
2021/05/19 14:33:43;;;;;;;1.33;0.80;;;;;;;;;;4993063;28;20410;-74
2021/05/19 14:59:56;;;;;;;4.33;1.07;;;19.00;1.00;;;;;;4992883;28;20425;-74
2021/05/19 15:02:23;;;;;;;2.40;0.80;;;;;;;;;;4996207;28;20449;-74
2021/05/19 15:04:49;;;;;;;3.43;0.60;;;;;;;;;;4993785;28;20729;-75
2021/05/19 15:07:21;;;;;;;1.90;0.80;;;19.30;1.00;;;;;;4995277;28;20415;-74
2021/05/19 15:09:51;;;;;;;2.00;0.80;;;19.70;1.00;;;;;;4994651;28;20387;-75
2021/05/19 15:12:16;;;;;;;1.27;0.70;;;20.30;1.00;;;;;;4995048;28;20454;-75
2021/05/19 15:14:46;;;;;;;1.07;0.60;;;21.80;1.00;;;;;;4994414;28;20429;-75